Ada, West Virginia
Current Conditions -  °F | °C
As of 6:52 AM on Thursday 23 Oct 2014 (Local Time) from KBLF Reporting Station
Overcast Overcast  
Wind Chill: 37°   Ceiling: 700
Heat Index: 42°   Visibility: 10mi
Dew Point: 38°   Wind: 8mph
Humidity: 85%   Direction: 320°NW
Pressure: 30.16"   Gusts: NA
Location:  37.2994°N, 81.226°W
Report Text: KBLF 231052Z AUTO 32007KT 10SM OVC007 06/03 A3016 RMK AO2 SLP214 T00560033
Loading
Personal Weather Stations






























Interactive Weather Map New forecast layout! Learn more

10-Day Weather Forecast

Advertisements
Track Severe Weather on mobile